Mesa Verde, CO (81330)

12:13 AM MST on February 08, 2016 (GMT -0700)
Cortez Municipal | | Change Station
CLOSE
Current Station
Airport
Location: Cortez,
Elevation: 5915 ft
Nearby Weather Stations

Elev 5915 ft 37.31 °N, 108.63 °W | Updated 20 minutes ago

Clear
Clear
21 °F
Feels Like 9 °F
N
12
Wind Variable Wind from ENE

Today
High -- | Low -- °F
--% Chance of Precip.
Yesterday
High -- | Low -- °F
Precip. -- in
Pressure 30.46 in
Visibility 10.0 miles
Clouds Clear
Windchill 9 °F
Dew Point 15 °F
Humidity 78%
Rainfall 0.00 in
Snow Depth Not available.
7:10 AM 5:45 PM
Waning Crescent, 0% visible
METAR KCEZ 080653Z AUTO 06010KT 10SM CLR M06/M09 A3042 RMK AO2 SLP313 T10611094 400781117
Pressure 30.46 in
Visibility 10.0 miles
Clouds Clear
Windchill 9 °F
Dew Point 15 °F
Humidity 78%
Rainfall 0.00 in
Snow Depth Not available.
7:10 AM 5:45 PM
Waning Crescent, 0% visible
METAR KCEZ 080653Z AUTO 06010KT 10SM CLR M06/M09 A3042 RMK AO2 SLP313 T10611094 400781117

10-Day Weather Forecast

Almanac

Astronomy

Feb. 08, 2016 Rise Set
Actual Time
Civil Twilight
Nautical Twilight
Astronomical Twilight
Moon
Length of Visible Light
Length of Day
Tomorrow will be .
, % of the Moon is Illuminated

Today's Extremes

State Highs State Lows

Community

WunderPhotos

Upload Photos

1,891,394 photos uploaded!

WunderBlog® & News

Nearby

Air Quality

  Air Quality AQ Index Pollutant
Not available.

Snow Depth

Station Depth Elevation

Earthquake Activity

City Distance Mag. Time & Date
Minimum magnitude displayed is 2.5.

Coastal Water Temperatures

Place Temperature

Stations

Nearby Weather Stations

Station Location Temp. Windchill Dew Point Humidity Wind Precip. Elev Updated Type
                   

Watches & Warnings

There are currently no watches in effect.